Time;durP1;ratioP1;P1;durP2;ratioP2;P2;SDS_P1;SDS_P2;PMS_P1;PMS_P2;Temp;Humidity;BMP_temperature;BMP_pressure;BME280_temperature;BME280_humidity;BME280_pressure;Samples;Min_cycle;Max_cycle;Signal;HPM_P1;HPM_P2
2021/09/24 00:01:02;;;;;;;;;;;15.10;99.90;;;;;;5012337;28;19940;-72
2021/09/24 00:04:06;;;;;;;;;;;15.20;99.90;;;;;;5023789;28;19936;-72
2021/09/24 00:07:10;;;;;;;;;;;15.10;99.90;;;;;;5023141;28;19913;-73
2021/09/24 00:10:14;;;;;;;;;;;14.90;99.90;;;;;;5016650;28;20474;-72
2021/09/24 00:13:18;;;;;;;;;;;14.90;99.90;;;;;;5013287;28;19917;-72
2021/09/24 00:16:22;;;;;;;;;;;14.80;99.90;;;;;;4992511;28;19921;-72
2021/09/24 00:19:26;;;;;;;;;;;14.70;99.90;;;;;;5007331;28;19932;-72
2021/09/24 00:22:30;;;;;;;;;;;14.70;99.90;;;;;;5012165;28;19941;-72
2021/09/24 00:25:34;;;;;;;;;;;14.70;99.90;;;;;;5012723;28;19932;-72
2021/09/24 00:28:38;;;;;;;;;;;14.70;99.90;;;;;;5011811;28;19913;-72
2021/09/24 00:31:42;;;;;;;;;;;14.70;99.90;;;;;;5016413;28;19925;-72
2021/09/24 00:34:46;;;;;;;;;;;14.70;99.90;;;;;;5031579;28;19939;-72
2021/09/24 00:37:50;;;;;;;;;;;14.70;99.90;;;;;;5030736;28;19924;-72
2021/09/24 00:40:54;;;;;;;;;;;14.70;99.90;;;;;;5030004;28;19940;-72
2021/09/24 00:43:58;;;;;;;;;;;14.80;99.90;;;;;;5032141;28;19920;-72
2021/09/24 00:47:02;;;;;;;;;;;14.70;99.90;;;;;;5006885;28;20471;-72
2021/09/24 00:50:07;;;;;;;;;;;14.60;99.90;;;;;;5021513;28;19925;-72
2021/09/24 00:53:11;;;;;;;;;;;14.60;99.90;;;;;;5013299;28;19924;-72
2021/09/24 00:56:15;;;;;;;;;;;14.50;99.90;;;;;;5017815;28;19920;-72
2021/09/24 00:59:20;;;;;;;;;;;14.40;99.90;;;;;;5024725;28;19920;-72
2021/09/24 01:02:24;;;;;;;;;;;14.40;99.90;;;;;;5011654;28;20286;-72
2021/09/24 01:05:28;;;;;;;;;;;14.30;99.90;;;;;;5019607;28;19920;-72
2021/09/24 01:08:32;;;;;;;;;;;14.30;99.90;;;;;;5028959;28;20360;-72
2021/09/24 01:11:37;;;;;;;;;;;14.20;99.90;;;;;;5029470;28;19925;-72
2021/09/24 01:14:41;;;;;;;;;;;14.30;99.90;;;;;;5011135;28;20391;-72
2021/09/24 01:17:47;;;;;;;;;;;14.30;99.90;;;;;;5021439;28;19920;-72
2021/09/24 01:20:53;;;;;;;;;;;14.40;99.90;;;;;;5027140;28;19920;-72
2021/09/24 01:23:57;;;;;;;;;;;14.40;99.90;;;;;;4991923;28;19936;-72
2021/09/24 01:27:00;;;;;;;;;;;14.40;99.90;;;;;;5013017;28;19921;-72
2021/09/24 01:30:06;;;;;;;;;;;14.40;99.90;;;;;;5016453;28;19927;-72
2021/09/24 01:33:10;;;;;;;;;;;14.40;99.90;;;;;;5031116;28;19928;-72
2021/09/24 01:36:15;;;;;;;;;;;14.30;99.90;;;;;;5025566;28;19920;-72
2021/09/24 01:39:18;;;;;;;;;;;14.30;99.90;;;;;;5014415;28;19921;-72
2021/09/24 01:42:23;;;;;;;;;;;13.90;99.90;;;;;;5030859;28;19936;-72
2021/09/24 01:45:27;;;;;;;;;;;13.40;99.90;;;;;;5012494;28;19921;-72
2021/09/24 01:48:31;;;;;;;;;;;13.40;99.90;;;;;;5020196;28;19935;-71
2021/09/24 01:51:36;;;;;;;;;;;13.30;99.90;;;;;;5030688;28;19924;-72
2021/09/24 01:54:40;;;;;;;;;;;13.30;99.90;;;;;;5029340;28;19928;-72
2021/09/24 01:57:45;;;;;;;;;;;13.30;99.90;;;;;;5015178;28;19920;-71
2021/09/24 02:00:50;;;;;;;;;;;13.30;99.90;;;;;;5030111;28;19920;-72
2021/09/24 02:03:54;;;;;;;;;;;13.30;99.90;;;;;;4991223;28;19921;-72
2021/09/24 02:06:58;;;;;;;;;;;13.30;99.90;;;;;;5015493;28;19924;-72
2021/09/24 02:10:06;;;;;;;;;;;13.30;99.90;;;;;;5027071;28;19932;-71
2021/09/24 02:13:11;;;;;;;;;;;13.30;99.90;;;;;;4991484;28;20272;-72
2021/09/24 02:16:15;;;;;;;;;;;13.30;99.90;;;;;;5024374;28;19924;-72
2021/09/24 02:19:20;;;;;;;;;;;13.20;99.90;;;;;;5028620;28;19920;-72
2021/09/24 02:22:24;;;;;;;;;;;13.20;99.90;;;;;;5030333;28;20101;-72
2021/09/24 02:25:28;;;;;;;;;;;13.20;99.90;;;;;;5014031;28;19925;-69
2021/09/24 02:28:32;;;;;;;;;;;13.10;99.90;;;;;;5017054;28;19921;-72
2021/09/24 02:31:36;;;;;;;;;;;13.20;99.90;;;;;;5030415;28;19924;-72
2021/09/24 02:34:40;;;;;;;;;;;13.30;99.90;;;;;;5012390;28;19929;-72
2021/09/24 02:37:45;;;;;;;;;;;13.40;99.90;;;;;;5015026;28;20414;-72
2021/09/24 02:40:48;;;;;;;;;;;13.40;99.90;;;;;;5029984;28;19924;-72
2021/09/24 02:43:52;;;;;;;;;;;13.40;99.90;;;;;;5010992;28;19940;-72
2021/09/24 02:46:56;;;;;;;;;;;13.40;99.90;;;;;;5013827;28;19921;-71
2021/09/24 02:50:00;;;;;;;;;;;13.40;99.90;;;;;;5010026;28;20403;-72
2021/09/24 02:53:04;;;;;;;;;;;13.40;99.90;;;;;;4990459;28;19929;-72
2021/09/24 02:56:08;;;;;;;;;;;13.30;99.90;;;;;;5013056;28;19920;-72
2021/09/24 02:59:13;;;;;;;;;;;13.30;99.90;;;;;;5027367;28;19920;-72
2021/09/24 03:02:17;;;;;;;;;;;13.20;99.90;;;;;;5010339;28;19920;-72
2021/09/24 03:05:22;;;;;;;;;;;13.20;99.90;;;;;;5009363;28;20256;-72
2021/09/24 03:08:26;;;;;;;;;;;13.20;99.90;;;;;;5014552;28;19921;-72
2021/09/24 03:11:29;;;;;;;;;;;13.20;99.90;;;;;;4991137;28;19953;-72
2021/09/24 03:14:34;;;;;;;;;;;13.10;99.90;;;;;;5021276;28;20383;-72
2021/09/24 03:17:38;;;;;;;;;;;13.10;99.90;;;;;;5023018;28;19913;-72
2021/09/24 03:20:42;;;;;;;;;;;13.10;99.90;;;;;;5010609;28;20266;-72
2021/09/24 03:23:46;;;;;;;;;;;13.10;99.90;;;;;;5009893;28;19921;-72
2021/09/24 03:26:50;;;;;;;;;;;13.10;99.90;;;;;;5009296;28;19924;-72
2021/09/24 03:29:54;;;;;;;;;;;13.00;99.90;;;;;;5010291;28;20388;-72
2021/09/24 03:32:58;;;;;;;;;;;13.00;99.90;;;;;;5030279;28;19921;-72
2021/09/24 03:36:02;;;;;;;;;;;13.10;99.90;;;;;;5021489;28;19921;-72
2021/09/24 03:39:11;;;;;;;;;;;13.10;99.90;;;;;;5013407;28;20276;-72
2021/09/24 03:42:16;;;;;;;;;;;13.10;99.90;;;;;;4993559;28;19948;-72
2021/09/24 03:45:20;;;;;;;;;;;12.90;99.90;;;;;;5006215;28;19936;-71
2021/09/24 03:48:24;;;;;;;;;;;12.60;99.90;;;;;;5014541;28;20280;-71
2021/09/24 03:51:28;;;;;;;;;;;12.40;99.90;;;;;;5032709;28;20363;-71
2021/09/24 03:54:33;;;;;;;;;;;12.30;99.90;;;;;;5027336;28;19925;-71
2021/09/24 03:57:37;;;;;;;;;;;12.30;99.90;;;;;;5000499;28;19920;-71
2021/09/24 04:00:40;;;;;;;;;;;12.30;99.90;;;;;;5032621;28;19924;-71
2021/09/24 04:03:44;;;;;;;;;;;12.30;99.90;;;;;;5032010;28;19913;-71
2021/09/24 04:06:48;;;;;;;;;;;12.20;99.90;;;;;;5030759;28;19920;-71
2021/09/24 04:09:53;;;;;;;;;;;12.20;99.90;;;;;;5032393;28;20282;-71
2021/09/24 04:12:57;;;;;;;;;;;12.00;99.90;;;;;;5027200;28;19920;-71
2021/09/24 04:16:01;;;;;;;;;;;12.00;99.90;;;;;;5026553;28;20308;-71
2021/09/24 04:19:06;;;;;;;;;;;12.00;99.90;;;;;;5032317;28;19935;-71
2021/09/24 04:22:10;;;;;;;;;;;12.10;99.90;;;;;;5031870;28;19924;-71
2021/09/24 04:25:15;;;;;;;;;;;12.10;99.90;;;;;;5026564;28;19924;-71
2021/09/24 04:28:19;;;;;;;;;;;12.20;99.90;;;;;;5032648;28;19921;-71
2021/09/24 04:31:23;;;;;;;;;;;12.20;99.90;;;;;;5030664;28;19928;-72
2021/09/24 04:34:28;;;;;;;;;;;12.20;99.90;;;;;;5027041;28;20300;-71
2021/09/24 04:37:32;;;;;;;;;;;12.30;99.90;;;;;;5032124;28;20383;-71
2021/09/24 04:40:36;;;;;;;;;;;12.40;99.90;;;;;;4992510;28;19925;-71
2021/09/24 04:43:40;;;;;;;;;;;12.50;99.90;;;;;;5010629;28;19929;-71
2021/09/24 04:46:47;;;;;;;;;;;12.50;99.90;;;;;;5011733;28;19913;-71
2021/09/24 04:49:51;;;;;;;;;;;12.50;99.90;;;;;;5012221;28;19920;-71
2021/09/24 04:52:56;;;;;;;;;;;12.50;99.90;;;;;;5016204;28;19920;-72
2021/09/24 04:56:00;;;;;;;;;;;12.40;99.90;;;;;;5015647;28;19936;-71
2021/09/24 04:59:04;;;;;;;;;;;12.40;99.90;;;;;;5032039;28;19956;-71
2021/09/24 05:02:08;;;;;;;;;;;12.40;99.90;;;;;;5012563;28;20383;-71
2021/09/24 05:05:13;;;;;;;;;;;12.40;99.90;;;;;;5011480;28;19929;-72
2021/09/24 05:08:17;;;;;;;;;;;12.30;99.90;;;;;;4993132;28;20408;-72
2021/09/24 05:11:21;;;;;;;;;;;12.20;99.90;;;;;;5008684;28;19924;-71
2021/09/24 05:14:25;;;;;;;;;;;12.20;99.90;;;;;;5011258;28;20400;-71
2021/09/24 05:17:29;;;;;;;;;;;12.20;99.90;;;;;;5011203;28;20313;-71
2021/09/24 05:20:33;;;;;;;;;;;12.30;99.90;;;;;;5009613;28;20391;-71
2021/09/24 05:23:38;;;;;;;;;;;12.30;99.90;;;;;;5021914;28;20314;-71
2021/09/24 05:26:43;;;;;;;;;;;12.40;99.90;;;;;;5031538;28;19920;-71
2021/09/24 05:29:47;;;;;;;;;;;12.30;99.90;;;;;;4991872;28;19924;-72
2021/09/24 05:32:51;;;;;;;;;;;12.30;99.90;;;;;;5016979;28;19932;-72
2021/09/24 05:35:55;;;;;;;;;;;12.30;99.90;;;;;;5030350;28;19920;-72
2021/09/24 05:38:59;;;;;;;;;;;12.40;99.90;;;;;;5031013;28;19928;-72
2021/09/24 05:42:03;;;;;;;;;;;12.50;99.90;;;;;;5018742;28;19928;-71
2021/09/24 05:45:11;;;;;;;;;;;12.60;99.90;;;;;;5012876;28;20018;-71
2021/09/24 05:48:15;;;;;;;;;;;12.60;99.90;;;;;;4991983;28;19940;-71
2021/09/24 05:51:19;;;;;;;;;;;12.60;99.90;;;;;;5025270;28;19917;-71
2021/09/24 05:54:23;;;;;;;;;;;13.80;99.90;;;;;;5024833;28;20199;-72
2021/09/24 05:57:27;;;;;;;;;;;17.00;99.90;;;;;;4991357;28;19964;-71
2021/09/24 06:00:31;;;;;;;;;;;19.00;99.90;;;;;;5010505;28;19921;-72
2021/09/24 06:03:36;;;;;;;;;;;19.80;99.90;;;;;;5001240;28;19928;-72
2021/09/24 06:06:40;;;;;;;;;;;19.00;99.90;;;;;;4990768;28;19992;-72
2021/09/24 06:09:45;;;;;;;;;;;18.40;99.90;;;;;;5008920;28;19921;-72
2021/09/24 06:12:50;;;;;;;;;;;18.50;99.90;;;;;;5007294;28;19927;-72
2021/09/24 06:15:55;;;;;;;;;;;19.20;99.90;;;;;;5008979;28;19920;-72
2021/09/24 06:18:59;;;;;;;;;;;20.30;99.90;;;;;;5007581;28;20385;-71
2021/09/24 06:22:04;;;;;;;;;;;21.50;98.90;;;;;;5006340;28;20316;-70
2021/09/24 06:25:09;;;;;;;;;;;23.40;96.20;;;;;;5005126;28;19921;-69
2021/09/24 06:28:13;;;;;;;;;;;24.20;93.50;;;;;;5010897;28;19920;-72
2021/09/24 06:31:17;;;;;;;;;;;23.90;92.90;;;;;;5008067;28;19940;-72
2021/09/24 06:34:23;;;;;;;;;;;25.10;91.70;;;;;;5009153;28;20882;-70
2021/09/24 06:37:27;;;;;;;;;;;25.50;90.30;;;;;;4990858;28;19920;-69
2021/09/24 06:40:31;;;;;;;;;;;25.90;88.50;;;;;;5005113;28;19925;-71
2021/09/24 06:43:35;;;;;;;;;;;26.30;88.20;;;;;;4995903;28;20297;-70
2021/09/24 06:46:39;;;;;;;;;;;27.10;85.10;;;;;;5011051;28;19921;-70
2021/09/24 06:49:43;;;;;;;;;;;25.80;85.20;;;;;;5023452;28;19921;-70
2021/09/24 06:52:47;;;;;;;;;;;23.60;88.40;;;;;;5009793;28;19932;-72
2021/09/24 06:55:52;;;;;;;;;;;22.80;90.30;;;;;;5005281;28;20287;-70
2021/09/24 06:58:56;;;;;;;;;;;23.10;90.70;;;;;;5007119;28;19920;-70
2021/09/24 07:02:00;;;;;;;;;;;25.10;87.60;;;;;;5003126;28;19924;-70
2021/09/24 07:05:04;;;;;;;;;;;26.40;84.70;;;;;;5002370;28;19925;-70
2021/09/24 07:08:09;;;;;;;;;;;27.20;83.70;;;;;;5012795;28;19920;-71
2021/09/24 07:11:13;;;;;;;;;;;26.00;83.10;;;;;;5008854;28;19925;-70
2021/09/24 07:14:18;;;;;;;;;;;26.30;82.60;;;;;;5005716;28;19925;-70
2021/09/24 07:17:22;;;;;;;;;;;25.10;83.00;;;;;;5006910;28;20360;-70
2021/09/24 07:20:26;;;;;;;;;;;22.30;90.10;;;;;;5009883;28;20284;-70
2021/09/24 07:23:30;;;;;;;;;;;24.00;88.10;;;;;;5010229;28;19920;-72
2021/09/24 07:26:34;;;;;;;;;;;25.50;84.60;;;;;;5014576;28;19929;-70
2021/09/24 07:29:39;;;;;;;;;;;25.30;84.20;;;;;;5007211;28;20376;-72
2021/09/24 07:32:43;;;;;;;;;;;26.40;83.00;;;;;;4996499;28;19925;-72
2021/09/24 07:35:47;;;;;;;;;;;28.10;80.30;;;;;;4994111;28;19925;-71
2021/09/24 07:38:51;;;;;;;;;;;28.80;77.00;;;;;;5012694;28;19917;-70
2021/09/24 07:41:55;;;;;;;;;;;29.60;76.80;;;;;;5003535;28;19944;-72
2021/09/24 07:44:59;;;;;;;;;;;30.30;74.60;;;;;;5033009;28;20402;-72
2021/09/24 07:48:04;;;;;;;;;;;31.60;73.10;;;;;;5012576;28;19924;-72
2021/09/24 07:51:11;;;;;;;;;;;33.10;70.40;;;;;;5016469;28;20308;-71
2021/09/24 07:54:16;;;;;;;;;;;33.60;68.70;;;;;;5003344;28;20273;-71
2021/09/24 07:57:20;;;;;;;;;;;34.70;67.20;;;;;;5012327;28;19924;-72
2021/09/24 08:00:25;;;;;;;;;;;35.40;65.10;;;;;;5009525;28;19913;-70
2021/09/24 08:03:30;;;;;;;;;;;33.70;65.00;;;;;;5012890;28;19924;-71
2021/09/24 08:06:34;;;;;;;;;;;29.20;70.20;;;;;;4993465;28;19924;-71
2021/09/24 08:09:38;;;;;;;;;;;29.30;70.90;;;;;;5001677;28;19924;-71
2021/09/24 08:12:42;;;;;;;;;;;30.80;70.30;;;;;;4995477;28;19941;-71
2021/09/24 08:15:46;;;;;;;;;;;29.40;70.80;;;;;;4994555;28;20335;-70
2021/09/24 08:18:50;;;;;;;;;;;31.20;69.70;;;;;;5001515;28;19921;-69
2021/09/24 08:21:54;;;;;;;;;;;30.90;69.20;;;;;;5007564;28;19936;-71
2021/09/24 08:24:58;;;;;;;;;;;30.20;69.40;;;;;;5006942;28;19913;-69
2021/09/24 08:28:02;;;;;;;;;;;31.40;68.60;;;;;;5000012;28;19917;-69
2021/09/24 08:31:06;;;;;;;;;;;32.20;68.40;;;;;;5009038;28;19925;-72
2021/09/24 08:34:10;;;;;;;;;;;32.50;67.90;;;;;;5007335;28;19924;-71
2021/09/24 08:37:15;;;;;;;;;;;33.60;66.70;;;;;;5006131;28;19944;-70
2021/09/24 08:40:20;;;;;;;;;;;31.60;67.70;;;;;;5006746;28;19925;-70
2021/09/24 08:43:49;;;;;;;;;;;29.40;71.20;;;;;;5006047;28;20779;-70
2021/09/24 08:46:53;;;;;;;;;;;32.30;69.40;;;;;;5004043;28;19920;-73
2021/09/24 08:50:00;;;;;;;;;;;32.50;68.10;;;;;;5014475;28;20404;-73
2021/09/24 08:53:06;;;;;;;;;;;30.40;69.90;;;;;;4992493;28;19928;-73
2021/09/24 08:56:10;;;;;;;;;;;29.90;72.00;;;;;;5011552;28;19913;-73
2021/09/24 08:59:15;;;;;;;;;;;30.20;70.60;;;;;;5005543;28;19924;-73
2021/09/24 09:02:19;;;;;;;;;;;31.70;70.20;;;;;;5012387;28;19937;-73
2021/09/24 09:05:27;;;;;;;;;;;32.70;68.80;;;;;;5033569;28;19920;-73
2021/09/24 09:08:34;;;;;;;;;;;30.90;67.90;;;;;;5032922;28;19917;-74
2021/09/24 09:11:38;;;;;;;;;;;31.00;70.80;;;;;;5011707;28;19933;-73
2021/09/24 09:15:07;;;;;;;;;;;33.50;68.40;;;;;;4993083;28;20388;-75
2021/09/24 09:18:16;;;;;;;;;;;31.90;69.00;;;;;;5008924;28;19936;-75
2021/09/24 09:21:23;;;;;;;;;;;29.40;71.50;;;;;;4997768;28;19920;-72
2021/09/24 09:24:28;;;;;;;;;;;31.80;70.00;;;;;;5000292;28;19920;-74
2021/09/24 09:27:32;;;;;;;;;;;31.70;69.60;;;;;;4994585;28;19921;-74
2021/09/24 09:30:37;;;;;;;;;;;31.30;71.50;;;;;;5015257;28;19920;-74
2021/09/24 09:33:42;;;;;;;;;;;34.10;67.80;;;;;;5008333;28;19928;-73
2021/09/24 09:36:46;;;;;;;;;;;36.80;65.10;;;;;;5006793;28;19924;-75
2021/09/24 09:40:01;;;;;;;;;;;38.00;63.20;;;;;;5012469;28;19940;-74
2021/09/24 09:43:04;;;;;;;;;;;38.50;61.30;;;;;;5002647;28;19924;-73
2021/09/24 09:46:14;;;;;;;;;;;36.30;62.40;;;;;;5004654;28;20395;-74
2021/09/24 09:49:18;;;;;;;;;;;36.40;62.50;;;;;;5003708;28;19914;-75
2021/09/24 09:52:22;;;;;;;;;;;32.50;66.50;;;;;;5015930;28;19924;-74
2021/09/24 09:55:27;;;;;;;;;;;34.30;63.60;;;;;;5001773;28;19924;-74
2021/09/24 09:58:38;;;;;;;;;;;30.80;66.30;;;;;;5016100;28;19918;-75
2021/09/24 10:01:45;;;;;;;;;;;31.50;68.70;;;;;;5003463;28;19936;-74
2021/09/24 10:04:52;;;;;;;;;;;35.30;64.50;;;;;;4989260;28;19925;-74
2021/09/24 10:07:56;;;;;;;;;;;35.20;64.00;;;;;;5005410;28;19921;-74
2021/09/24 10:11:11;;;;;;;;;;;36.50;60.60;;;;;;5008041;28;19929;-72
2021/09/24 10:14:15;;;;;;;;;;;39.10;60.20;;;;;;4998849;28;20403;-74
2021/09/24 10:17:21;;;;;;;;;;;38.60;59.10;;;;;;5031240;28;19929;-71
2021/09/24 10:20:25;;;;;;;;;;;38.20;58.70;;;;;;5006646;28;19920;-74
2021/09/24 10:23:30;;;;;;;;;;;37.20;59.00;;;;;;5009544;28;20383;-75
2021/09/24 10:26:39;;;;;;;;;;;38.00;58.70;;;;;;5009902;28;19921;-74
2021/09/24 10:29:45;;;;;;;;;;;35.30;59.70;;;;;;5008872;28;19922;-75
2021/09/24 10:32:56;;;;;;;;;;;38.30;58.80;;;;;;5006164;28;20400;-73
2021/09/24 10:36:03;;;;;;;;;;;39.60;56.70;;;;;;4993947;28;19932;-74
2021/09/24 10:39:26;;;;;;;;;;;34.70;60.40;;;;;;5009423;28;19925;-74
2021/09/24 10:42:33;;;;;;;;;;;32.60;61.30;;;;;;5028461;28;19944;-74
2021/09/24 10:45:40;;;;;;;;;;;34.50;61.70;;;;;;5027724;28;19917;-73
2021/09/24 10:48:44;;;;;;;;;;;38.00;58.20;;;;;;5006393;28;19936;-72
2021/09/24 10:52:08;;;;;;;;;;;39.20;55.10;;;;;;4995091;28;20381;-73
2021/09/24 10:55:14;;;;;;;;;;;37.20;56.30;;;;;;5007874;28;19920;-72
2021/09/24 10:58:28;;;;;;;;;;;39.00;55.90;;;;;;5004332;28;20377;-74
2021/09/24 11:01:34;;;;;;;;;;;36.50;57.20;;;;;;5018201;28;19921;-76
2021/09/24 11:04:42;;;;;;;;;;;39.30;56.60;;;;;;5016205;28;20292;-73
2021/09/24 11:07:47;;;;;;;;;;;42.30;54.50;;;;;;5012914;28;19924;-73
2021/09/24 11:11:20;;;;;;;;;;;40.40;52.40;;;;;;5011080;28;19924;-72
2021/09/24 11:14:24;;;;;;;;;;;41.70;53.10;;;;;;4998698;28;19933;-73
2021/09/24 11:17:48;;;;;;;;;;;41.90;52.60;;;;;;4997479;28;19920;-75
2021/09/24 11:20:55;;;;;;;;;;;36.10;55.40;;;;;;4999683;28;19940;-72
2021/09/24 11:24:00;;;;;;;;;;;37.90;55.70;;;;;;5013217;28;19924;-73
2021/09/24 11:27:09;;;;;;;;;;;34.70;56.90;;;;;;5019860;28;19925;-73
2021/09/24 11:30:14;;;;;;;;;;;38.30;56.00;;;;;;5016113;28;19925;-75
2021/09/24 11:33:46;;;;;;;;;;;39.40;53.60;;;;;;5001995;28;19924;-75
2021/09/24 11:36:58;;;;;;;;;;;37.90;55.20;;;;;;5009724;28;19921;-75
2021/09/24 11:40:05;;;;;;;;;;;36.00;56.40;;;;;;5003144;28;19925;-75
2021/09/24 11:43:09;;;;;;;;;;;37.90;55.20;;;;;;5013468;28;19920;-72
2021/09/24 11:46:21;;;;;;;;;;;39.20;54.00;;;;;;5003820;28;20352;-75
2021/09/24 11:49:26;;;;;;;;;;;40.10;53.70;;;;;;5009372;28;19920;-74
2021/09/24 11:52:33;;;;;;;;;;;39.70;52.90;;;;;;4997441;28;20316;-75
2021/09/24 11:55:38;;;;;;;;;;;38.00;54.00;;;;;;5010289;28;19937;-75
2021/09/24 11:58:44;;;;;;;;;;;39.70;54.00;;;;;;5005965;28;19920;-74
2021/09/24 12:01:48;;;;;;;;;;;41.80;52.60;;;;;;5009119;28;19920;-75
2021/09/24 12:04:56;;;;;;;;;;;40.90;52.30;;;;;;5009454;28;20292;-74
2021/09/24 12:08:00;;;;;;;;;;;40.80;52.60;;;;;;5009981;28;19933;-73
2021/09/24 12:11:05;;;;;;;;;;;41.70;52.20;;;;;;5007501;28;19925;-74
2021/09/24 12:14:09;;;;;;;;;;;43.10;51.80;;;;;;5010762;28;19924;-76
2021/09/24 12:17:13;;;;;;;;;;;43.50;50.50;;;;;;5006848;28;19936;-73
2021/09/24 12:20:24;;;;;;;;;;;43.90;50.70;;;;;;5014159;28;20380;-76
2021/09/24 12:23:27;;;;;;;;;;;40.30;51.80;;;;;;5011490;28;19944;-75
2021/09/24 12:26:42;;;;;;;;;;;38.60;53.50;;;;;;5004750;28;19925;-75
2021/09/24 12:29:46;;;;;;;;;;;35.60;55.90;;;;;;5007756;28;19921;-74
2021/09/24 12:32:52;;;;;;;;;;;37.20;55.40;;;;;;4979687;28;20372;-72
2021/09/24 12:36:01;;;;;;;;;;;39.90;53.70;;;;;;4972766;28;19921;-73
2021/09/24 12:39:12;;;;;;;;;;;37.00;54.40;;;;;;4999663;28;20371;-75
2021/09/24 12:42:17;;;;;;;;;;;37.60;55.70;;;;;;4985586;28;20414;-73
2021/09/24 12:45:25;;;;;;;;;;;37.40;54.20;;;;;;5005904;28;20566;-74
2021/09/24 12:48:36;;;;;;;;;;;36.10;56.50;;;;;;5027563;28;20373;-75
2021/09/24 12:51:41;;;;;;;;;;;38.50;55.20;;;;;;4977553;28;20423;-73
2021/09/24 12:54:45;;;;;;;;;;;39.20;54.10;;;;;;4961216;28;19921;-72
2021/09/24 12:57:51;;;;;;;;;;;40.20;53.70;;;;;;4974752;28;20477;-75
2021/09/24 13:00:56;;;;;;;;;;;40.10;53.60;;;;;;4985083;28;19922;-74
2021/09/24 13:04:01;;;;;;;;;;;37.10;55.50;;;;;;4978243;28;20332;-74
2021/09/24 13:07:05;;;;;;;;;;;34.50;58.10;;;;;;4975591;28;19930;-72
2021/09/24 13:10:10;;;;;;;;;;;34.00;59.40;;;;;;4978477;28;19921;-75
2021/09/24 13:13:15;;;;;;;;;;;34.30;59.20;;;;;;4966027;28;19928;-73
2021/09/24 13:16:20;;;;;;;;;;;33.60;60.10;;;;;;4967925;28;19921;-74
2021/09/24 13:19:24;;;;;;;;;;;32.80;61.60;;;;;;4992671;28;19921;-71
2021/09/24 13:22:28;;;;;;;;;;;35.80;58.30;;;;;;4994034;28;19920;-72
2021/09/24 13:25:32;;;;;;;;;;;37.00;57.10;;;;;;4973012;28;19921;-72
2021/09/24 13:28:36;;;;;;;;;;;38.50;55.60;;;;;;4999248;28;19921;-74
2021/09/24 13:31:41;;;;;;;;;;;40.30;54.40;;;;;;4979907;28;20048;-73
2021/09/24 13:34:45;;;;;;;;;;;40.20;53.30;;;;;;4999061;28;19921;-76
2021/09/24 13:37:49;;;;;;;;;;;41.10;53.50;;;;;;4977769;28;19925;-73
2021/09/24 13:40:53;;;;;;;;;;;40.60;53.80;;;;;;4994802;28;19941;-73
2021/09/24 13:43:57;;;;;;;;;;;40.70;53.70;;;;;;4974732;28;19925;-74
2021/09/24 13:47:01;;;;;;;;;;;41.10;53.50;;;;;;4990338;28;19918;-76
2021/09/24 13:50:22;;;;;;;;;;;40.90;53.30;;;;;;4985598;28;19918;-72
2021/09/24 13:53:26;;;;;;;;;;;40.40;53.30;;;;;;4993568;28;19937;-72
2021/09/24 13:56:30;;;;;;;;;;;40.90;53.70;;;;;;4997654;28;19921;-72
2021/09/24 13:59:34;;;;;;;;;;;41.30;53.30;;;;;;4999038;28;20529;-72
2021/09/24 14:02:37;;;;;;;;;;;40.90;53.40;;;;;;4978612;28;19925;-72
2021/09/24 14:05:41;;;;;;;;;;;41.30;53.80;;;;;;4975588;28;19921;-71
2021/09/24 14:08:45;;;;;;;;;;;40.90;53.20;;;;;;4984819;28;19921;-72
2021/09/24 14:11:49;;;;;;;;;;;39.30;54.40;;;;;;4982930;28;19933;-71
2021/09/24 14:14:53;;;;;;;;;;;37.40;56.20;;;;;;4989720;28;19918;-72
2021/09/24 14:17:58;;;;;;;;;;;37.50;56.60;;;;;;4979187;28;19917;-71
2021/09/24 14:21:02;;;;;;;;;;;36.90;57.00;;;;;;4989152;28;19921;-70
2021/09/24 14:24:08;;;;;;;;;;;36.40;57.20;;;;;;5010556;28;20186;-70
2021/09/24 14:27:12;;;;;;;;;;;35.30;58.60;;;;;;5009453;28;19921;-71
2021/09/24 14:30:18;;;;;;;;;;;35.50;59.00;;;;;;4986983;28;19921;-71
2021/09/24 14:33:22;;;;;;;;;;;36.20;58.70;;;;;;4976816;28;19929;-71
2021/09/24 14:36:26;;;;;;;;;;;36.60;58.10;;;;;;4970784;28;19936;-72
2021/09/24 14:39:30;;;;;;;;;;;34.90;58.90;;;;;;4985061;28;19921;-71
2021/09/24 14:42:34;;;;;;;;;;;32.70;61.70;;;;;;4974782;28;19932;-71
2021/09/24 14:45:39;;;;;;;;;;;31.90;63.10;;;;;;4987995;28;19929;-73
2021/09/24 14:48:43;;;;;;;;;;;31.40;64.00;;;;;;4989028;28;19914;-73
2021/09/24 14:51:50;;;;;;;;;;;31.20;64.60;;;;;;4983703;28;19928;-71
2021/09/24 14:54:55;;;;;;;;;;;30.90;65.10;;;;;;5010441;28;19921;-72
2021/09/24 14:57:59;;;;;;;;;;;30.60;65.60;;;;;;5007996;28;20399;-72
2021/09/24 15:01:04;;;;;;;;;;;30.20;66.30;;;;;;5003709;28;19924;-72
2021/09/24 15:04:08;;;;;;;;;;;29.90;67.30;;;;;;5010022;28;19920;-70
2021/09/24 15:07:12;;;;;;;;;;;29.70;67.70;;;;;;5009170;28;19921;-72
2021/09/24 15:10:16;;;;;;;;;;;29.80;68.30;;;;;;5005093;28;19933;-72
2021/09/24 15:13:20;;;;;;;;;;;30.10;68.30;;;;;;4989409;28;19924;-72
2021/09/24 15:16:24;;;;;;;;;;;30.20;68.10;;;;;;4988459;28;19921;-72
2021/09/24 15:19:28;;;;;;;;;;;30.40;68.10;;;;;;4999738;28;19925;-72
2021/09/24 15:22:33;;;;;;;;;;;30.60;68.00;;;;;;5010032;28;19920;-72
2021/09/24 15:25:37;;;;;;;;;;;30.70;68.30;;;;;;4989353;28;20388;-72
2021/09/24 15:28:41;;;;;;;;;;;30.40;69.00;;;;;;4993891;28;19925;-72
2021/09/24 15:31:46;;;;;;;;;;;30.20;69.60;;;;;;4995637;28;19937;-72
2021/09/24 15:34:50;;;;;;;;;;;30.00;70.20;;;;;;4974099;28;19926;-72
2021/09/24 15:37:54;;;;;;;;;;;29.90;70.70;;;;;;4993839;28;19937;-71
2021/09/24 15:41:00;;;;;;;;;;;29.90;71.00;;;;;;4993383;28;20416;-71
2021/09/24 15:44:04;;;;;;;;;;;29.80;71.50;;;;;;4974445;28;19957;-72
2021/09/24 15:47:08;;;;;;;;;;;29.80;71.40;;;;;;5014279;28;19925;-72
2021/09/24 15:50:13;;;;;;;;;;;29.80;72.00;;;;;;5011009;28;19921;-72
2021/09/24 15:53:17;;;;;;;;;;;29.70;72.20;;;;;;4993819;28;19929;-71
2021/09/24 15:56:23;;;;;;;;;;;29.40;72.80;;;;;;5008654;28;19925;-70
2021/09/24 15:59:27;;;;;;;;;;;29.00;73.50;;;;;;5000673;28;19921;-71
2021/09/24 16:02:32;;;;;;;;;;;28.80;74.60;;;;;;5013048;28;19928;-71
2021/09/24 16:05:36;;;;;;;;;;;28.60;75.60;;;;;;5011813;28;19914;-71
2021/09/24 16:08:40;;;;;;;;;;;28.30;76.40;;;;;;5012258;28;19925;-71
2021/09/24 16:11:44;;;;;;;;;;;28.10;76.90;;;;;;4993283;28;19925;-72
2021/09/24 16:14:48;;;;;;;;;;;27.90;77.70;;;;;;5011604;28;19929;-71
2021/09/24 16:17:52;;;;;;;;;;;27.70;78.30;;;;;;5004206;28;19925;-72
2021/09/24 16:20:56;;;;;;;;;;;27.50;79.20;;;;;;4993540;28;19920;-71
2021/09/24 16:24:00;;;;;;;;;;;27.30;79.90;;;;;;5000577;28;19920;-71
2021/09/24 16:27:04;;;;;;;;;;;27.10;80.40;;;;;;5002020;28;19940;-73
2021/09/24 16:30:11;;;;;;;;;;;27.00;81.20;;;;;;4993732;28;19929;-73
2021/09/24 16:33:14;;;;;;;;;;;26.90;81.80;;;;;;5003778;28;19928;-71
2021/09/24 16:36:18;;;;;;;;;;;26.80;82.10;;;;;;5004284;28;20368;-71
2021/09/24 16:39:22;;;;;;;;;;;26.70;82.50;;;;;;5006822;28;19925;-71
2021/09/24 16:42:26;;;;;;;;;;;26.60;82.80;;;;;;5012637;28;19924;-72
2021/09/24 16:45:32;;;;;;;;;;;26.50;83.20;;;;;;4996416;28;19921;-73
2021/09/24 16:48:36;;;;;;;;;;;26.40;83.90;;;;;;4996874;28;19928;-73
2021/09/24 16:51:41;;;;;;;;;;;26.30;84.30;;;;;;4992727;28;19929;-73
2021/09/24 16:54:45;;;;;;;;;;;26.20;84.70;;;;;;4991115;28;19914;-73
2021/09/24 16:57:49;;;;;;;;;;;26.10;85.40;;;;;;5005362;28;19921;-73
2021/09/24 17:00:53;;;;;;;;;;;25.90;85.90;;;;;;4991567;28;19933;-73
2021/09/24 17:03:56;;;;;;;;;;;25.80;86.50;;;;;;5009824;28;19936;-73
2021/09/24 17:07:00;;;;;;;;;;;25.60;87.00;;;;;;5004014;28;19920;-71
2021/09/24 17:10:06;;;;;;;;;;;25.50;87.60;;;;;;4992427;28;19925;-71
2021/09/24 17:13:10;;;;;;;;;;;25.40;88.00;;;;;;4972674;28;19941;-73
2021/09/24 17:16:14;;;;;;;;;;;25.30;88.60;;;;;;4985403;28;19925;-73
2021/09/24 17:19:18;;;;;;;;;;;25.20;89.20;;;;;;4993597;28;20030;-73
2021/09/24 17:22:21;;;;;;;;;;;25.10;89.90;;;;;;4972493;28;20313;-72
2021/09/24 17:25:26;;;;;;;;;;;24.90;90.10;;;;;;4987238;28;19921;-73
2021/09/24 17:28:30;;;;;;;;;;;24.80;90.40;;;;;;4991738;28;19930;-72
2021/09/24 17:31:35;;;;;;;;;;;24.80;90.70;;;;;;4991906;28;19924;-72
2021/09/24 17:34:39;;;;;;;;;;;24.60;90.90;;;;;;5003761;28;19932;-73
2021/09/24 17:37:42;;;;;;;;;;;24.50;91.20;;;;;;5010365;28;20288;-73
2021/09/24 17:40:47;;;;;;;;;;;24.50;91.50;;;;;;5011199;28;19993;-72
2021/09/24 17:43:52;;;;;;;;;;;24.50;91.80;;;;;;5006150;28;20516;-72
2021/09/24 17:46:56;;;;;;;;;;;24.40;92.00;;;;;;5016086;28;20304;-72
2021/09/24 17:50:00;;;;;;;;;;;24.40;92.40;;;;;;5010429;28;19924;-72
2021/09/24 17:53:04;;;;;;;;;;;24.40;92.70;;;;;;5004355;28;19925;-72
2021/09/24 17:56:08;;;;;;;;;;;24.30;93.40;;;;;;5009318;28;19921;-72